createdAt,value
2022-11-23T00:01:35.949Z,12.70
2022-11-23T00:04:05.396Z,13.85
2022-11-23T00:06:32.374Z,13.40
2022-11-23T00:08:59.588Z,12.90
2022-11-23T00:11:27.623Z,13.55
2022-11-23T00:13:55.064Z,11.20
2022-11-23T00:16:24.403Z,11.03
2022-11-23T00:18:59.694Z,16.75
2022-11-23T00:21:30.373Z,15.18
2022-11-23T00:23:57.157Z,18.40
2022-11-23T00:26:23.566Z,14.63
2022-11-23T00:28:50.419Z,17.63
2022-11-23T00:31:19.365Z,17.55
2022-11-23T00:33:51.715Z,14.75
2022-11-23T00:36:19.517Z,13.00
2022-11-23T00:38:46.294Z,13.38
2022-11-23T00:41:16.328Z,12.70
2022-11-23T00:43:45.656Z,13.98
2022-11-23T00:46:20.726Z,13.85
2022-11-23T00:48:53.414Z,13.48
2022-11-23T00:51:23.258Z,13.48
2022-11-23T00:53:53.075Z,20.02
2022-11-23T00:56:21.738Z,14.02
2022-11-23T00:58:53.864Z,15.40
2022-11-23T01:01:22.631Z,15.30
2022-11-23T01:03:52.640Z,14.55
2022-11-23T01:06:23.533Z,16.92
2022-11-23T01:08:59.848Z,17.98
2022-11-23T01:11:30.562Z,13.38
2022-11-23T01:13:58.250Z,15.57
2022-11-23T01:16:29.036Z,18.02
2022-11-23T01:18:59.874Z,13.45
2022-11-23T01:21:29.579Z,15.57
2022-11-23T01:23:57.385Z,13.23
2022-11-23T01:26:25.346Z,15.80
2022-11-23T01:28:52.469Z,18.80
2022-11-23T01:31:22.329Z,14.73
2022-11-23T01:33:56.034Z,16.95
2022-11-23T01:36:29.133Z,19.48
2022-11-23T01:38:56.112Z,17.45
2022-11-23T01:41:28.167Z,18.73
2022-11-23T01:43:55.501Z,21.88
2022-11-23T01:46:22.068Z,18.88
2022-11-23T01:48:58.025Z,18.65
2022-11-23T01:51:35.716Z,16.80
2022-11-23T01:54:09.944Z,20.00
2022-11-23T01:56:42.246Z,24.67
2022-11-23T01:59:12.879Z,22.27
2022-11-23T02:01:39.466Z,21.20
2022-11-23T02:04:08.665Z,23.08
2022-11-23T02:06:35.191Z,27.75
2022-11-23T02:09:02.185Z,28.95
2022-11-23T02:11:28.792Z,25.10
2022-11-23T02:13:56.955Z,29.52
2022-11-23T02:16:23.419Z,26.00
2022-11-23T02:18:51.978Z,22.38
2022-11-23T02:21:19.471Z,28.35
2022-11-23T02:24:10.189Z,30.30
2022-11-23T02:26:36.922Z,25.80
2022-11-23T02:29:09.294Z,23.70
2022-11-23T02:31:39.126Z,28.13
2022-11-23T02:34:05.503Z,28.05
2022-11-23T02:36:38.004Z,32.13
2022-11-23T02:39:12.417Z,27.90
2022-11-23T02:41:44.047Z,34.88
2022-11-23T02:44:23.900Z,32.85
2022-11-23T02:46:51.719Z,30.38
2022-11-23T02:49:18.247Z,34.17
2022-11-23T02:51:44.637Z,31.95
2022-11-23T02:54:11.138Z,29.10
2022-11-23T02:56:37.818Z,31.48
2022-11-23T02:59:04.424Z,34.90
2022-11-23T03:01:31.056Z,26.38
2022-11-23T03:03:57.447Z,30.50
2022-11-23T03:06:23.967Z,27.90
2022-11-23T03:08:50.387Z,28.15
2022-11-23T03:11:17.481Z,29.30
2022-11-23T03:13:44.320Z,29.40
2022-11-23T03:16:11.045Z,25.45
2022-11-23T03:18:37.433Z,27.02
2022-11-23T03:21:05.564Z,29.83
2022-11-23T03:23:31.953Z,27.23
2022-11-23T03:25:59.119Z,28.52
2022-11-23T03:28:26.083Z,30.02
2022-11-23T03:30:52.722Z,31.77
2022-11-23T03:33:19.315Z,27.75
2022-11-23T03:35:46.652Z,28.77
2022-11-23T03:38:13.384Z,27.30
2022-11-23T03:40:39.915Z,23.85
2022-11-23T03:43:06.664Z,33.40
2022-11-23T03:45:33.125Z,28.92
2022-11-23T03:47:59.582Z,27.30
2022-11-23T03:50:26.026Z,26.70
2022-11-23T03:52:52.443Z,24.98
2022-11-23T03:55:18.917Z,29.63
2022-11-23T03:57:48.324Z,23.20
2022-11-23T04:00:15.584Z,26.10
2022-11-23T04:02:43.233Z,27.48
2022-11-23T04:05:10.024Z,24.92
2022-11-23T04:07:36.519Z,25.52
2022-11-23T04:10:03.992Z,23.02
2022-11-23T04:12:30.431Z,25.17
2022-11-23T04:14:56.809Z,24.67
2022-11-23T04:17:23.194Z,20.15
2022-11-23T04:19:49.571Z,22.85
2022-11-23T04:22:15.981Z,17.58
2022-11-23T04:24:42.399Z,21.75
2022-11-23T04:27:08.930Z,16.35
2022-11-23T04:29:35.340Z,23.60
2022-11-23T04:32:01.779Z,15.55
2022-11-23T04:34:28.279Z,17.42
2022-11-23T04:36:54.770Z,20.00
2022-11-23T04:39:21.225Z,14.75
2022-11-23T04:41:47.637Z,17.75
2022-11-23T04:44:14.024Z,14.25
2022-11-23T04:46:40.415Z,15.48
2022-11-23T04:49:06.863Z,14.48
2022-11-23T04:51:33.245Z,15.75
2022-11-23T04:53:59.615Z,12.68
2022-11-23T04:56:26.232Z,17.13
2022-11-23T04:58:52.655Z,12.95
2022-11-23T05:01:19.107Z,16.50
2022-11-23T05:03:45.560Z,13.57
2022-11-23T05:06:11.937Z,11.63
2022-11-23T05:08:38.403Z,13.35
2022-11-23T05:11:04.997Z,12.25
2022-11-23T05:13:31.727Z,11.77
2022-11-23T05:16:00.716Z,14.55
2022-11-23T05:18:27.251Z,10.77
2022-11-23T05:20:53.708Z,14.90
2022-11-23T05:23:20.238Z,10.18
2022-11-23T05:25:46.937Z,10.10
2022-11-23T05:28:38.931Z,12.38
2022-11-23T05:31:04.616Z,11.40
2022-11-23T05:33:31.178Z,14.82
2022-11-23T05:35:57.681Z,16.75
2022-11-23T05:38:24.169Z,8.63
2022-11-23T05:40:50.627Z,13.10
2022-11-23T05:43:17.071Z,15.98
2022-11-23T05:45:43.471Z,11.82
2022-11-23T05:48:10.272Z,10.85
2022-11-23T05:50:37.061Z,12.52
2022-11-23T05:53:03.599Z,11.15
2022-11-23T05:55:30.059Z,14.25
2022-11-23T05:57:56.439Z,11.43
2022-11-23T06:00:23.335Z,11.88
2022-11-23T06:02:49.783Z,14.43
2022-11-23T06:05:18.803Z,13.52
2022-11-23T06:07:45.281Z,18.52
2022-11-23T06:10:12.585Z,16.17
2022-11-23T06:12:39.512Z,15.77
2022-11-23T06:15:06.574Z,15.80
2022-11-23T06:17:33.076Z,10.30
2022-11-23T06:19:59.538Z,11.75
2022-11-23T06:22:25.992Z,11.05
2022-11-23T06:24:52.399Z,13.02
2022-11-23T06:27:18.857Z,15.20
2022-11-23T06:29:46.857Z,12.30
2022-11-23T06:32:13.637Z,10.50
2022-11-23T06:34:40.077Z,12.30
2022-11-23T06:37:06.638Z,14.45
2022-11-23T06:39:33.468Z,11.93
2022-11-23T06:42:16.867Z,11.63
2022-11-23T06:44:46.690Z,11.82
2022-11-23T06:47:17.176Z,8.52
2022-11-23T06:49:44.848Z,14.23
2022-11-23T06:52:11.398Z,14.88
2022-11-23T06:54:37.897Z,9.57
2022-11-23T06:57:07.795Z,19.00
2022-11-23T06:59:34.412Z,13.38
2022-11-23T07:02:01.077Z,12.20
2022-11-23T07:04:27.577Z,14.88
2022-11-23T07:06:54.012Z,17.05
2022-11-23T07:09:20.570Z,14.57
2022-11-23T07:11:46.990Z,15.95
2022-11-23T07:14:13.870Z,15.70
2022-11-23T07:16:40.315Z,9.20
2022-11-23T07:19:06.793Z,14.02
2022-11-23T07:21:33.751Z,13.63
2022-11-23T07:24:00.387Z,14.52
2022-11-23T07:26:26.970Z,13.68
2022-11-23T07:28:53.446Z,17.75
2022-11-23T07:31:19.966Z,9.85
2022-11-23T07:33:47.206Z,17.17
2022-11-23T07:36:14.459Z,10.82
2022-11-23T07:38:41.247Z,9.80
2022-11-23T07:41:08.012Z,11.57
2022-11-23T07:43:34.455Z,12.32
2022-11-23T07:46:01.072Z,12.27
2022-11-23T07:48:29.747Z,14.65
2022-11-23T07:50:59.730Z,9.13
2022-11-23T07:53:26.428Z,13.40
2022-11-23T07:55:57.806Z,13.45
2022-11-23T07:58:24.588Z,11.45
2022-11-23T08:00:51.149Z,11.27
2022-11-23T08:03:33.083Z,9.02
2022-11-23T08:05:59.650Z,8.88
2022-11-23T08:08:26.067Z,17.50
2022-11-23T08:10:54.156Z,13.80
2022-11-23T08:15:53.729Z,17.10
2022-11-23T08:18:20.897Z,15.25
2022-11-23T08:20:47.374Z,11.95
2022-11-23T08:23:13.839Z,10.75
2022-11-23T08:25:40.294Z,11.95
2022-11-23T08:28:06.724Z,11.90
2022-11-23T08:30:34.952Z,17.60
2022-11-23T08:33:05.864Z,13.48
2022-11-23T08:35:39.979Z,13.07
2022-11-23T08:38:07.816Z,13.45
2022-11-23T08:40:35.351Z,20.70
2022-11-23T08:43:02.164Z,16.50
2022-11-23T08:45:29.038Z,10.75
2022-11-23T08:48:02.763Z,15.65
2022-11-23T08:50:30.269Z,19.08
2022-11-23T08:52:57.842Z,8.77
2022-11-23T08:55:25.416Z,20.13
2022-11-23T08:57:55.529Z,20.45
2022-11-23T09:00:22.046Z,13.98
2022-11-23T09:02:48.532Z,20.35
2022-11-23T09:05:15.120Z,16.15
2022-11-23T09:07:41.801Z,15.07
2022-11-23T09:10:09.426Z,15.18
2022-11-23T09:12:38.333Z,10.88
2022-11-23T09:15:05.215Z,16.98
2022-11-23T09:17:32.859Z,11.88
2022-11-23T09:20:00.193Z,14.10
2022-11-23T09:22:27.251Z,19.90
2022-11-23T09:24:53.807Z,13.32
2022-11-23T09:27:20.410Z,11.18
2022-11-23T09:29:46.891Z,23.42
2022-11-23T09:32:13.353Z,15.48
2022-11-23T09:34:39.791Z,15.75
2022-11-23T09:37:06.406Z,11.40
2022-11-23T09:39:34.060Z,14.77
2022-11-23T09:42:13.528Z,15.30
2022-11-23T09:44:45.840Z,9.50
2022-11-23T09:47:24.340Z,23.35
2022-11-23T09:50:03.461Z,15.70
2022-11-23T09:52:31.157Z,12.55
2022-11-23T09:55:03.383Z,13.73
2022-11-23T09:57:36.396Z,14.80
2022-11-23T10:00:12.341Z,17.65
2022-11-23T10:02:41.049Z,20.15
2022-11-23T10:05:16.900Z,18.35
2022-11-23T10:07:55.289Z,18.27
2022-11-23T10:13:08.599Z,14.18
2022-11-23T10:15:45.633Z,17.83
2022-11-23T10:18:21.049Z,13.85
2022-11-23T10:21:06.540Z,13.43
2022-11-23T10:23:54.515Z,12.25
2022-11-23T10:26:28.709Z,9.10
2022-11-23T10:28:57.369Z,8.68
2022-11-23T10:31:25.828Z,13.70
2022-11-23T10:34:09.082Z,13.52
2022-11-23T10:36:36.724Z,16.60
2022-11-23T10:39:15.284Z,11.75
2022-11-23T10:41:42.012Z,12.57
2022-11-23T10:44:30.833Z,19.80
2022-11-23T10:46:58.844Z,13.35
2022-11-23T10:49:29.220Z,10.63
2022-11-23T10:52:05.452Z,12.02
2022-11-23T10:54:39.256Z,12.90
2022-11-23T10:57:27.668Z,9.88
2022-11-23T11:00:00.846Z,15.00
2022-11-23T11:02:28.212Z,8.85
2022-11-23T11:06:06.967Z,9.15
2022-11-23T11:08:21.291Z,8.77
2022-11-23T11:10:53.004Z,11.73
2022-11-23T11:13:37.785Z,7.13
2022-11-23T11:16:07.049Z,12.90
2022-11-23T11:18:36.660Z,12.23
2022-11-23T11:21:41.162Z,10.98
2022-11-23T11:24:18.466Z,9.68
2022-11-23T11:27:01.277Z,11.13
2022-11-23T11:29:48.794Z,9.27
2022-11-23T11:32:30.311Z,7.40
2022-11-23T11:35:20.585Z,13.88
2022-11-23T11:37:50.860Z,12.95
2022-11-23T11:40:29.841Z,14.02
2022-11-23T11:43:05.829Z,11.73
2022-11-23T11:45:36.824Z,11.60
2022-11-23T11:48:10.437Z,10.02
2022-11-23T11:50:50.097Z,8.63
2022-11-23T11:53:24.796Z,8.98
2022-11-23T11:56:01.635Z,12.50
2022-11-23T11:58:28.103Z,12.40
2022-11-23T12:01:28.858Z,9.70
2022-11-23T12:03:59.974Z,15.70
2022-11-23T12:06:42.313Z,13.43
2022-11-23T12:09:18.688Z,7.95
2022-11-23T12:11:45.396Z,8.10
2022-11-23T12:14:14.440Z,10.00
2022-11-23T12:19:59.789Z,8.95
2022-11-23T12:22:36.179Z,11.75
2022-11-23T12:25:11.454Z,10.15
2022-11-23T12:27:48.598Z,9.35
2022-11-23T12:30:23.151Z,7.97
2022-11-23T12:33:08.432Z,8.77
2022-11-23T12:36:01.531Z,10.13
2022-11-23T12:38:31.402Z,13.27
2022-11-23T12:41:15.070Z,10.25
2022-11-23T12:44:23.855Z,10.50
2022-11-23T12:47:18.459Z,9.25
2022-11-23T12:49:45.584Z,7.85
2022-11-23T12:52:38.011Z,8.63
2022-11-23T12:55:24.103Z,8.20
2022-11-23T12:58:10.021Z,10.18
2022-11-23T13:00:41.158Z,6.53
2022-11-23T13:03:24.629Z,6.60
2022-11-23T13:06:13.141Z,10.50
2022-11-23T13:09:09.134Z,10.32
2022-11-23T13:12:02.603Z,8.40
2022-11-23T13:14:35.374Z,8.13
2022-11-23T13:17:42.749Z,15.93
2022-11-23T13:20:23.718Z,7.80
2022-11-23T13:22:51.614Z,5.47
2022-11-23T13:25:23.173Z,6.55
2022-11-23T13:27:50.900Z,3.80
2022-11-23T13:31:14.651Z,5.63
2022-11-23T13:33:37.383Z,10.00
2022-11-23T13:36:10.414Z,9.23
2022-11-23T13:38:41.408Z,17.25
2022-11-23T13:41:39.035Z,6.75
2022-11-23T13:44:23.172Z,7.32
2022-11-23T13:47:03.767Z,6.32
2022-11-23T13:49:30.141Z,7.40
2022-11-23T13:52:30.143Z,7.07
2022-11-23T13:55:07.485Z,6.20
2022-11-23T13:57:36.251Z,7.18
2022-11-23T14:00:40.413Z,8.85
2022-11-23T14:03:44.339Z,7.90
2022-11-23T14:06:29.133Z,7.90
2022-11-23T14:09:05.138Z,7.78
2022-11-23T14:11:40.471Z,6.45
2022-11-23T14:14:18.913Z,8.98
2022-11-23T14:17:19.639Z,6.05
2022-11-23T14:20:13.709Z,11.32
2022-11-23T14:22:52.411Z,5.32
2022-11-23T14:25:28.329Z,9.07
2022-11-23T14:28:19.494Z,9.52
2022-11-23T14:30:49.096Z,4.90
2022-11-23T14:33:24.592Z,7.25
2022-11-23T14:36:11.055Z,4.32
2022-11-23T14:39:01.911Z,5.18
2022-11-23T14:41:31.224Z,10.05
2022-11-23T14:44:00.814Z,8.88
2022-11-23T14:46:27.792Z,7.88
2022-11-23T14:49:04.774Z,10.95
2022-11-23T14:51:31.600Z,6.13
2022-11-23T14:54:01.299Z,8.90
2022-11-23T14:56:43.773Z,6.68
2022-11-23T14:59:24.719Z,5.90
2022-11-23T15:01:56.006Z,6.18
2022-11-23T15:04:35.595Z,12.70
2022-11-23T15:07:09.966Z,11.00
2022-11-23T15:10:00.413Z,6.53
2022-11-23T15:12:29.803Z,8.88
2022-11-23T15:14:59.605Z,11.38
2022-11-23T15:17:26.702Z,9.90
2022-11-23T15:19:55.205Z,8.82
2022-11-23T15:22:21.978Z,9.70
2022-11-23T15:24:48.647Z,5.32
2022-11-23T15:27:19.020Z,9.38
2022-11-23T15:29:57.293Z,5.70
2022-11-23T15:35:04.274Z,9.18
2022-11-23T15:37:32.543Z,13.48
2022-11-23T15:39:59.891Z,8.73
2022-11-23T15:42:27.106Z,10.68
2022-11-23T15:44:54.248Z,11.93
2022-11-23T15:47:28.348Z,13.18
2022-11-23T15:50:01.232Z,7.55
2022-11-23T15:52:32.358Z,10.65
2022-11-23T15:55:08.800Z,16.65
2022-11-23T15:57:39.621Z,7.00
2022-11-23T16:00:07.597Z,14.05
2022-11-23T16:02:34.922Z,9.00
2022-11-23T16:05:18.457Z,11.35
2022-11-23T16:07:59.643Z,10.45
2022-11-23T16:10:28.395Z,8.60
2022-11-23T16:12:59.637Z,4.50
2022-11-23T16:15:38.402Z,8.40
2022-11-23T16:18:18.272Z,12.00
2022-11-23T16:20:57.949Z,8.07
2022-11-23T16:23:27.438Z,8.07
2022-11-23T16:26:13.637Z,7.38
2022-11-23T16:28:55.435Z,9.07
2022-11-23T16:31:38.215Z,7.85
2022-11-23T16:34:17.350Z,6.70
2022-11-23T16:36:44.118Z,4.72
2022-11-23T16:39:11.318Z,15.93
2022-11-23T16:41:38.213Z,7.88
2022-11-23T16:44:04.790Z,7.25
2022-11-23T16:46:37.847Z,9.25
2022-11-23T16:49:14.658Z,13.65
2022-11-23T16:51:41.095Z,8.60
2022-11-23T16:54:13.445Z,6.63
2022-11-23T16:56:41.285Z,13.93
2022-11-23T16:59:16.089Z,11.57
2022-11-23T17:01:45.750Z,11.23
2022-11-23T17:04:14.661Z,6.93
2022-11-23T17:06:42.686Z,8.48
2022-11-23T17:09:10.321Z,7.80
2022-11-23T17:11:40.351Z,9.80
2022-11-23T17:14:09.020Z,10.48
2022-11-23T17:16:35.649Z,8.55
2022-11-23T17:19:02.251Z,11.90
2022-11-23T17:21:28.796Z,11.00
2022-11-23T17:23:55.319Z,8.07
2022-11-23T17:26:35.081Z,9.95
2022-11-23T17:29:04.210Z,6.07
2022-11-23T17:31:31.032Z,16.58
2022-11-23T17:33:57.639Z,11.15
2022-11-23T17:36:26.151Z,10.73
2022-11-23T17:41:19.427Z,7.72
2022-11-23T17:43:45.868Z,9.02
2022-11-23T17:46:19.360Z,8.05
2022-11-23T17:48:46.735Z,12.68
2022-11-23T17:51:13.636Z,9.20
2022-11-23T17:53:40.952Z,10.73
2022-11-23T17:56:16.941Z,9.02
2022-11-23T17:58:44.141Z,6.22
2022-11-23T18:01:13.718Z,10.95
2022-11-23T18:03:41.098Z,9.50
2022-11-23T18:06:14.955Z,11.57
2022-11-23T18:08:43.184Z,11.57
2022-11-23T18:11:10.297Z,10.13
2022-11-23T18:13:37.635Z,7.13
2022-11-23T18:16:04.644Z,9.38
2022-11-23T18:18:31.694Z,10.63
2022-11-23T18:21:01.575Z,10.75
2022-11-23T18:23:28.434Z,10.05
2022-11-23T18:25:59.338Z,6.75
2022-11-23T18:28:25.823Z,11.85
2022-11-23T18:30:52.254Z,9.93
2022-11-23T18:33:18.785Z,5.18
2022-11-23T18:35:45.248Z,10.73
2022-11-23T18:38:11.693Z,11.60
2022-11-23T18:40:38.120Z,11.18
2022-11-23T18:43:04.538Z,10.27
2022-11-23T18:45:32.006Z,10.02
2022-11-23T18:47:58.412Z,10.00
2022-11-23T18:50:24.803Z,10.77
2022-11-23T18:52:51.251Z,11.02
2022-11-23T18:55:20.785Z,9.95
2022-11-23T18:57:47.395Z,11.48
2022-11-23T19:00:15.795Z,11.15
2022-11-23T19:02:42.507Z,10.15
2022-11-23T19:05:09.192Z,11.52
2022-11-23T19:07:35.659Z,11.75
2022-11-23T19:10:03.008Z,9.07
2022-11-23T19:12:30.763Z,9.65
2022-11-23T19:14:57.188Z,13.73
2022-11-23T19:17:23.680Z,17.15
2022-11-23T19:19:50.079Z,12.10
2022-11-23T19:22:16.540Z,12.25
2022-11-23T19:24:42.927Z,14.57
2022-11-23T19:27:09.796Z,13.20
2022-11-23T19:29:36.491Z,14.07
2022-11-23T19:32:03.191Z,17.55
2022-11-23T19:34:29.611Z,14.38
2022-11-23T19:36:56.117Z,17.85
2022-11-23T19:39:22.510Z,12.90
2022-11-23T19:41:49.064Z,13.88
2022-11-23T19:44:15.514Z,15.98
2022-11-23T19:46:42.021Z,12.50
2022-11-23T19:49:08.729Z,12.95
2022-11-23T19:51:35.266Z,15.02
2022-11-23T19:54:02.086Z,13.52
2022-11-23T19:56:29.376Z,13.60
2022-11-23T19:59:00.772Z,15.30
2022-11-23T20:01:29.290Z,14.55
2022-11-23T20:03:57.753Z,12.52
2022-11-23T20:08:55.638Z,16.80
2022-11-23T20:11:22.419Z,17.95
2022-11-23T20:13:49.122Z,17.88
2022-11-23T20:16:18.405Z,14.45
2022-11-23T20:18:46.870Z,17.88
2022-11-23T20:23:41.424Z,14.73
2022-11-23T20:26:08.371Z,15.87
2022-11-23T20:28:34.819Z,12.18
2022-11-23T20:31:05.819Z,19.40
2022-11-23T20:33:32.763Z,16.65
2022-11-23T20:36:19.829Z,15.95
2022-11-23T20:38:46.919Z,15.80
2022-11-23T20:41:21.851Z,17.17
2022-11-23T20:43:51.575Z,15.85
2022-11-23T20:46:38.202Z,16.83
2022-11-23T20:49:04.629Z,15.82
2022-11-23T20:51:31.575Z,16.90
2022-11-23T20:53:58.129Z,18.10
2022-11-23T20:56:27.330Z,13.75
2022-11-23T20:58:55.943Z,16.33
2022-11-23T21:01:22.505Z,16.33
2022-11-23T21:03:51.993Z,16.75
2022-11-23T21:06:19.816Z,17.35
2022-11-23T21:08:47.948Z,18.52
2022-11-23T21:11:42.186Z,17.58
2022-11-23T21:14:18.594Z,17.83
2022-11-23T21:16:55.196Z,14.40
2022-11-23T21:19:23.884Z,15.77
2022-11-23T21:21:50.826Z,17.00
2022-11-23T21:24:20.472Z,13.05
2022-11-23T21:26:47.703Z,15.25
2022-11-23T21:29:18.363Z,19.67
2022-11-23T21:31:46.673Z,17.15
2022-11-23T21:34:26.102Z,17.55
2022-11-23T21:36:53.646Z,17.20
2022-11-23T21:39:20.580Z,15.87
2022-11-23T21:41:50.054Z,12.55
2022-11-23T21:44:16.871Z,17.25
2022-11-23T21:46:43.447Z,17.95
2022-11-23T21:49:11.072Z,15.55
2022-11-23T21:51:38.485Z,20.73
2022-11-23T21:54:09.962Z,11.43
2022-11-23T21:56:39.580Z,15.73
2022-11-23T21:59:07.664Z,16.73
2022-11-23T22:01:36.160Z,17.08
2022-11-23T22:04:11.163Z,17.88
2022-11-23T22:06:39.281Z,16.30
2022-11-23T22:09:09.085Z,14.63
2022-11-23T22:11:37.669Z,14.07
2022-11-23T22:14:07.160Z,17.15
2022-11-23T22:16:39.079Z,16.83
2022-11-23T22:19:06.641Z,20.75
2022-11-23T22:21:38.364Z,25.08
2022-11-23T22:24:06.510Z,18.70
2022-11-23T22:26:33.407Z,15.85
2022-11-23T22:29:02.396Z,18.67
2022-11-23T22:31:34.002Z,16.98
2022-11-23T22:34:02.658Z,16.15
2022-11-23T22:39:01.356Z,18.00
2022-11-23T22:41:29.792Z,20.65
2022-11-23T22:43:56.880Z,19.40
2022-11-23T22:46:25.049Z,15.82
2022-11-23T22:51:21.685Z,17.05
2022-11-23T22:53:48.277Z,15.65
2022-11-23T22:56:17.355Z,17.38
2022-11-23T22:58:45.152Z,21.00
2022-11-23T23:01:16.061Z,20.52
2022-11-23T23:03:42.853Z,17.60
2022-11-23T23:06:20.869Z,23.65
2022-11-23T23:08:52.184Z,15.18
2022-11-23T23:11:18.854Z,18.15
2022-11-23T23:13:45.494Z,20.92
2022-11-23T23:16:13.507Z,15.73
2022-11-23T23:18:41.979Z,24.05
2022-11-23T23:21:11.061Z,21.17
2022-11-23T23:23:38.930Z,27.90
2022-11-23T23:26:06.209Z,13.35
2022-11-23T23:28:34.143Z,18.15
2022-11-23T23:31:06.709Z,19.20
2022-11-23T23:33:33.641Z,17.88
2022-11-23T23:36:08.965Z,19.95
2022-11-23T23:38:37.124Z,17.00
2022-11-23T23:41:05.027Z,19.33
2022-11-23T23:43:32.448Z,18.55
2022-11-23T23:46:00.988Z,24.15
2022-11-23T23:48:33.370Z,19.67
2022-11-23T23:51:06.419Z,18.92
2022-11-23T23:53:34.473Z,19.75
2022-11-23T23:56:04.243Z,21.40
2022-11-23T23:58:31.583Z,21.67
